sensor_id;sensor_type;location;lat;lon;timestamp;pressure;altitude;pressure_sealevel;temperature;humidity
18988;BME280;5494;51.796;10.952;2023-05-20T00:00:54;99857.72;;;11.70;100.00
18988;BME280;5494;51.796;10.952;2023-05-20T00:03:23;99866.31;;;11.72;100.00
18988;BME280;5494;51.796;10.952;2023-05-20T00:05:51;99856.03;;;11.69;100.00
18988;BME280;5494;51.796;10.952;2023-05-20T00:08:19;99862.38;;;11.62;100.00
18988;BME280;5494;51.796;10.952;2023-05-20T00:10:47;99859.13;;;11.57;100.00
18988;BME280;5494;51.796;10.952;2023-05-20T00:13:15;99854.19;;;11.51;100.00
18988;BME280;5494;51.796;10.952;2023-05-20T00:15:45;99848.91;;;11.53;100.00
18988;BME280;5494;51.796;10.952;2023-05-20T00:18:13;99853.13;;;11.55;100.00
18988;BME280;5494;51.796;10.952;2023-05-20T00:20:41;99851.38;;;11.56;100.00
18988;BME280;5494;51.796;10.952;2023-05-20T00:23:09;99856.44;;;11.38;100.00
18988;BME280;5494;51.796;10.952;2023-05-20T00:25:37;99856.72;;;11.31;100.00
18988;BME280;5494;51.796;10.952;2023-05-20T00:28:05;99855.75;;;11.12;100.00
18988;BME280;5494;51.796;10.952;2023-05-20T00:30:33;99850.66;;;11.09;100.00
18988;BME280;5494;51.796;10.952;2023-05-20T00:33:02;99845.59;;;11.05;100.00
18988;BME280;5494;51.796;10.952;2023-05-20T00:35:30;99850.09;;;11.00;100.00
18988;BME280;5494;51.796;10.952;2023-05-20T00:37:59;99849.44;;;10.95;100.00
18988;BME280;5494;51.796;10.952;2023-05-20T00:40:27;99855.25;;;11.02;100.00
18988;BME280;5494;51.796;10.952;2023-05-20T00:42:55;99854.34;;;11.03;100.00
18988;BME280;5494;51.796;10.952;2023-05-20T00:45:23;99854.41;;;11.01;100.00
18988;BME280;5494;51.796;10.952;2023-05-20T00:47:52;99854.34;;;11.03;100.00
18988;BME280;5494;51.796;10.952;2023-05-20T00:50:24;99856.09;;;11.02;100.00
18988;BME280;5494;51.796;10.952;2023-05-20T00:52:52;99847.50;;;11.00;100.00
18988;BME280;5494;51.796;10.952;2023-05-20T00:55:21;99846.44;;;11.06;100.00
18988;BME280;5494;51.796;10.952;2023-05-20T00:57:50;99844.25;;;11.17;100.00
18988;BME280;5494;51.796;10.952;2023-05-20T01:00:19;99844.75;;;11.27;100.00
18988;BME280;5494;51.796;10.952;2023-05-20T01:02:49;99846.91;;;11.37;100.00
18988;BME280;5494;51.796;10.952;2023-05-20T01:05:18;99842.66;;;11.35;100.00
18988;BME280;5494;51.796;10.952;2023-05-20T01:07:47;99846.03;;;11.38;100.00
18988;BME280;5494;51.796;10.952;2023-05-20T01:10:15;99846.06;;;11.37;100.00
18988;BME280;5494;51.796;10.952;2023-05-20T01:12:49;99836.63;;;11.34;100.00
18988;BME280;5494;51.796;10.952;2023-05-20T01:15:24;99831.19;;;11.40;100.00
18988;BME280;5494;51.796;10.952;2023-05-20T01:18:00;99831.91;;;11.44;100.00
18988;BME280;5494;51.796;10.952;2023-05-20T01:20:29;99830.34;;;11.40;100.00
18988;BME280;5494;51.796;10.952;2023-05-20T01:23:00;99832.00;;;11.41;100.00
18988;BME280;5494;51.796;10.952;2023-05-20T01:25:28;99836.31;;;11.42;100.00
18988;BME280;5494;51.796;10.952;2023-05-20T01:27:57;99831.91;;;11.44;100.00
18988;BME280;5494;51.796;10.952;2023-05-20T01:30:32;99825.66;;;11.48;100.00
18988;BME280;5494;51.796;10.952;2023-05-20T01:33:07;99829.00;;;11.52;100.00
18988;BME280;5494;51.796;10.952;2023-05-20T01:35:55;99826.25;;;11.76;100.00
18988;BME280;5494;51.796;10.952;2023-05-20T01:38:26;99827.25;;;11.94;100.00
18988;BME280;5494;51.796;10.952;2023-05-20T01:40:56;99829.63;;;11.78;100.00
18988;BME280;5494;51.796;10.952;2023-05-20T01:43:25;99827.47;;;11.68;100.00
18988;BME280;5494;51.796;10.952;2023-05-20T01:45:55;99827.47;;;11.68;100.00
18988;BME280;5494;51.796;10.952;2023-05-20T01:48:23;99821.41;;;11.67;100.00
18988;BME280;5494;51.796;10.952;2023-05-20T01:50:51;99822.16;;;11.69;100.00
18988;BME280;5494;51.796;10.952;2023-05-20T01:53:19;99819.28;;;11.77;100.00
18988;BME280;5494;51.796;10.952;2023-05-20T01:55:48;99829.56;;;11.80;100.00
18988;BME280;5494;51.796;10.952;2023-05-20T01:58:16;99829.22;;;11.67;100.00
18988;BME280;5494;51.796;10.952;2023-05-20T02:00:44;99824.56;;;11.75;100.00
18988;BME280;5494;51.796;10.952;2023-05-20T02:03:12;99827.19;;;11.75;100.00
18988;BME280;5494;51.796;10.952;2023-05-20T02:05:41;99822.03;;;11.74;100.00
18988;BME280;5494;51.796;10.952;2023-05-20T02:08:09;99808.78;;;11.78;100.00
18988;BME280;5494;51.796;10.952;2023-05-20T02:10:36;99822.47;;;11.83;100.00
18988;BME280;5494;51.796;10.952;2023-05-20T02:13:06;99822.56;;;11.82;100.00
18988;BME280;5494;51.796;10.952;2023-05-20T02:15:34;99825.56;;;11.71;100.00
18988;BME280;5494;51.796;10.952;2023-05-20T02:18:02;99826.28;;;11.55;100.00
18988;BME280;5494;51.796;10.952;2023-05-20T02:20:34;99827.56;;;11.65;100.00
18988;BME280;5494;51.796;10.952;2023-05-20T02:23:02;99822.41;;;11.63;100.00
18988;BME280;5494;51.796;10.952;2023-05-20T02:25:31;99824.66;;;11.72;100.00
18988;BME280;5494;51.796;10.952;2023-05-20T02:28:00;99822.59;;;11.80;100.00
18988;BME280;5494;51.796;10.952;2023-05-20T02:30:32;99815.13;;;11.71;100.00
18988;BME280;5494;51.796;10.952;2023-05-20T02:33:01;99821.69;;;11.81;100.00
18988;BME280;5494;51.796;10.952;2023-05-20T02:35:30;99820.28;;;11.74;100.00
18988;BME280;5494;51.796;10.952;2023-05-20T02:37:58;99826.41;;;11.72;100.00
18988;BME280;5494;51.796;10.952;2023-05-20T02:40:26;99818.16;;;11.82;100.00
18988;BME280;5494;51.796;10.952;2023-05-20T02:42:54;99811.88;;;11.66;100.00
18988;BME280;5494;51.796;10.952;2023-05-20T02:45:22;99814.16;;;11.75;100.00
18988;BME280;5494;51.796;10.952;2023-05-20T02:47:52;99819.22;;;11.78;100.00
18988;BME280;5494;51.796;10.952;2023-05-20T02:50:20;99819.88;;;11.62;100.00
18988;BME280;5494;51.796;10.952;2023-05-20T02:52:48;99817.84;;;11.48;100.00
18988;BME280;5494;51.796;10.952;2023-05-20T02:55:16;99816.38;;;11.41;100.00
18988;BME280;5494;51.796;10.952;2023-05-20T02:57:44;99823.84;;;11.28;100.00
18988;BME280;5494;51.796;10.952;2023-05-20T03:00:13;99822.00;;;11.32;100.00
18988;BME280;5494;51.796;10.952;2023-05-20T03:02:42;99818.34;;;11.36;100.00
18988;BME280;5494;51.796;10.952;2023-05-20T03:05:11;99815.44;;;11.22;100.00
18988;BME280;5494;51.796;10.952;2023-05-20T03:07:40;99813.72;;;11.42;100.00
18988;BME280;5494;51.796;10.952;2023-05-20T03:10:09;99818.09;;;11.42;100.00
18988;BME280;5494;51.796;10.952;2023-05-20T03:12:38;99820.03;;;11.37;100.00
18988;BME280;5494;51.796;10.952;2023-05-20T03:15:09;99816.03;;;11.50;100.00
18988;BME280;5494;51.796;10.952;2023-05-20T03:17:37;99811.13;;;11.42;100.00
18988;BME280;5494;51.796;10.952;2023-05-20T03:20:07;99811.63;;;11.52;100.00
18988;BME280;5494;51.796;10.952;2023-05-20T03:22:40;99819.38;;;11.54;100.00
18988;BME280;5494;51.796;10.952;2023-05-20T03:25:09;99821.22;;;11.50;100.00
18988;BME280;5494;51.796;10.952;2023-05-20T03:27:37;99820.78;;;11.40;100.00
18988;BME280;5494;51.796;10.952;2023-05-20T03:30:07;99826.81;;;11.41;100.00
18988;BME280;5494;51.796;10.952;2023-05-20T03:32:35;99825.78;;;11.45;100.00
18988;BME280;5494;51.796;10.952;2023-05-20T03:35:04;99822.28;;;11.46;100.00
18988;BME280;5494;51.796;10.952;2023-05-20T03:37:33;99828.94;;;11.53;100.00
18988;BME280;5494;51.796;10.952;2023-05-20T03:40:04;99826.28;;;11.55;100.00
18988;BME280;5494;51.796;10.952;2023-05-20T03:42:33;99831.44;;;11.76;100.00
18988;BME280;5494;51.796;10.952;2023-05-20T03:45:02;99824.78;;;11.69;100.00
18988;BME280;5494;51.796;10.952;2023-05-20T03:47:35;99823.31;;;11.62;100.00
18988;BME280;5494;51.796;10.952;2023-05-20T03:50:06;99825.69;;;11.68;100.00
18988;BME280;5494;51.796;10.952;2023-05-20T03:52:35;99820.84;;;11.81;100.00
18988;BME280;5494;51.796;10.952;2023-05-20T03:55:06;99822.94;;;11.71;100.00
18988;BME280;5494;51.796;10.952;2023-05-20T03:57:34;99815.06;;;11.74;100.00
18988;BME280;5494;51.796;10.952;2023-05-20T04:00:04;99815.28;;;11.68;100.00
18988;BME280;5494;51.796;10.952;2023-05-20T04:02:42;99815.19;;;11.70;100.00
18988;BME280;5494;51.796;10.952;2023-05-20T04:05:12;99811.53;;;11.75;100.00
18988;BME280;5494;51.796;10.952;2023-05-20T04:07:41;99815.19;;;11.70;100.00
18988;BME280;5494;51.796;10.952;2023-05-20T04:10:11;99805.88;;;11.64;100.00
18988;BME280;5494;51.796;10.952;2023-05-20T04:12:39;99807.75;;;11.82;100.00
18988;BME280;5494;51.796;10.952;2023-05-20T04:15:09;99808.75;;;11.80;100.00
18988;BME280;5494;51.796;10.952;2023-05-20T04:17:45;99803.81;;;11.72;100.00
18988;BME280;5494;51.796;10.952;2023-05-20T04:20:14;99797.81;;;11.70;100.00
18988;BME280;5494;51.796;10.952;2023-05-20T04:22:42;99802.38;;;11.65;100.00
18988;BME280;5494;51.796;10.952;2023-05-20T04:25:12;99802.31;;;11.67;100.00
18988;BME280;5494;51.796;10.952;2023-05-20T04:27:40;99803.22;;;11.66;100.00
18988;BME280;5494;51.796;10.952;2023-05-20T04:30:10;99803.94;;;11.69;100.00
18988;BME280;5494;51.796;10.952;2023-05-20T04:32:40;99807.16;;;11.76;100.00
18988;BME280;5494;51.796;10.952;2023-05-20T04:35:09;99805.13;;;11.82;100.00
18988;BME280;5494;51.796;10.952;2023-05-20T04:37:42;99808.53;;;11.84;100.00
18988;BME280;5494;51.796;10.952;2023-05-20T04:40:15;99805.22;;;11.81;100.00
18988;BME280;5494;51.796;10.952;2023-05-20T04:42:45;99800.34;;;11.72;100.00
18988;BME280;5494;51.796;10.952;2023-05-20T04:45:14;99804.06;;;11.66;100.00
18988;BME280;5494;51.796;10.952;2023-05-20T04:47:42;99803.16;;;11.67;100.00
18988;BME280;5494;51.796;10.952;2023-05-20T04:50:12;99808.94;;;11.75;100.00
18988;BME280;5494;51.796;10.952;2023-05-20T04:52:41;99814.34;;;11.69;100.00
18988;BME280;5494;51.796;10.952;2023-05-20T04:55:12;99814.53;;;11.44;100.00
18988;BME280;5494;51.796;10.952;2023-05-20T04:57:43;99807.66;;;11.64;100.00
18988;BME280;5494;51.796;10.952;2023-05-20T05:00:12;99807.38;;;11.70;100.00
18988;BME280;5494;51.796;10.952;2023-05-20T05:02:40;99807.25;;;11.74;100.00
18988;BME280;5494;51.796;10.952;2023-05-20T05:05:09;99798.66;;;11.71;100.00
18988;BME280;5494;51.796;10.952;2023-05-20T05:07:38;99803.53;;;11.80;100.00
18988;BME280;5494;51.796;10.952;2023-05-20T05:10:07;99808.09;;;11.75;100.00
18988;BME280;5494;51.796;10.952;2023-05-20T05:12:35;99799.88;;;11.62;100.00
18988;BME280;5494;51.796;10.952;2023-05-20T05:15:07;99802.59;;;11.61;100.00
18988;BME280;5494;51.796;10.952;2023-05-20T05:17:35;99803.22;;;11.66;100.00
18988;BME280;5494;51.796;10.952;2023-05-20T05:20:05;99804.44;;;11.79;100.00
18988;BME280;5494;51.796;10.952;2023-05-20T05:22:34;99809.66;;;11.57;100.00
18988;BME280;5494;51.796;10.952;2023-05-20T05:25:07;99806.09;;;11.60;100.00
18988;BME280;5494;51.796;10.952;2023-05-20T05:27:35;99807.09;;;11.77;100.00
18988;BME280;5494;51.796;10.952;2023-05-20T05:30:07;99811.28;;;11.81;100.00
18988;BME280;5494;51.796;10.952;2023-05-20T05:32:36;99800.72;;;11.84;100.00
18988;BME280;5494;51.796;10.952;2023-05-20T05:35:05;99803.31;;;11.84;100.00
18988;BME280;5494;51.796;10.952;2023-05-20T05:37:34;99800.66;;;12.06;100.00
18988;BME280;5494;51.796;10.952;2023-05-20T05:40:04;99804.63;;;11.95;100.00
18988;BME280;5494;51.796;10.952;2023-05-20T05:42:32;99803.56;;;11.99;100.00
18988;BME280;5494;51.796;10.952;2023-05-20T05:45:01;99806.19;;;11.99;100.00
18988;BME280;5494;51.796;10.952;2023-05-20T05:47:31;99802.66;;;12.00;100.00
18988;BME280;5494;51.796;10.952;2023-05-20T05:49:59;99809.69;;;11.77;100.00
18988;BME280;5494;51.796;10.952;2023-05-20T05:52:30;99814.50;;;11.66;100.00
18988;BME280;5494;51.796;10.952;2023-05-20T05:55:00;99810.97;;;11.67;100.00
18988;BME280;5494;51.796;10.952;2023-05-20T05:57:29;99810.00;;;11.70;100.00
18988;BME280;5494;51.796;10.952;2023-05-20T05:59:58;99809.53;;;11.60;100.00
18988;BME280;5494;51.796;10.952;2023-05-20T06:02:31;99808.94;;;11.75;100.00
18988;BME280;5494;51.796;10.952;2023-05-20T06:05:02;99814.59;;;12.05;100.00
18988;BME280;5494;51.796;10.952;2023-05-20T06:07:31;99810.53;;;12.18;100.00
18988;BME280;5494;51.796;10.952;2023-05-20T06:09:59;99810.06;;;12.29;100.00
18988;BME280;5494;51.796;10.952;2023-05-20T06:12:27;99814.38;;;12.30;100.00
18988;BME280;5494;51.796;10.952;2023-05-20T06:14:55;99807.84;;;12.20;100.00
18988;BME280;5494;51.796;10.952;2023-05-20T06:17:23;99813.00;;;12.21;100.00
18988;BME280;5494;51.796;10.952;2023-05-20T06:19:53;99807.63;;;12.06;100.00
18988;BME280;5494;51.796;10.952;2023-05-20T06:22:21;99807.94;;;11.98;100.00
18988;BME280;5494;51.796;10.952;2023-05-20T06:24:49;99803.19;;;12.08;100.00
18988;BME280;5494;51.796;10.952;2023-05-20T06:27:17;99808.41;;;12.08;100.00
18988;BME280;5494;51.796;10.952;2023-05-20T06:29:45;99810.69;;;11.95;100.00
18988;BME280;5494;51.796;10.952;2023-05-20T06:32:13;99809.00;;;11.94;100.00
18988;BME280;5494;51.796;10.952;2023-05-20T06:34:41;99805.84;;;12.06;100.00
18988;BME280;5494;51.796;10.952;2023-05-20T06:37:11;99813.31;;;11.95;100.00
18988;BME280;5494;51.796;10.952;2023-05-20T06:39:39;99809.44;;;11.83;100.00
18988;BME280;5494;51.796;10.952;2023-05-20T06:42:07;99810.03;;;11.90;100.00
18988;BME280;5494;51.796;10.952;2023-05-20T06:44:36;99806.13;;;12.00;100.00
18988;BME280;5494;51.796;10.952;2023-05-20T06:47:15;99800.91;;;12.00;100.00
18988;BME280;5494;51.796;10.952;2023-05-20T06:49:46;99793.03;;;12.02;100.00
18988;BME280;5494;51.796;10.952;2023-05-20T06:52:16;99790.75;;;12.14;100.00
18988;BME280;5494;51.796;10.952;2023-05-20T06:54:45;99792.09;;;12.23;100.00
18988;BME280;5494;51.796;10.952;2023-05-20T06:57:13;99791.13;;;12.44;100.00
18988;BME280;5494;51.796;10.952;2023-05-20T06:59:44;99790.50;;;12.58;100.00
18988;BME280;5494;51.796;10.952;2023-05-20T07:02:14;99783.28;;;12.82;100.00
18988;BME280;5494;51.796;10.952;2023-05-20T07:04:42;99781.66;;;12.79;100.00
18988;BME280;5494;51.796;10.952;2023-05-20T07:07:10;99777.22;;;12.81;100.00
18988;BME280;5494;51.796;10.952;2023-05-20T07:09:39;99782.09;;;12.89;100.00
18988;BME280;5494;51.796;10.952;2023-05-20T07:12:07;99779.56;;;12.69;100.00
18988;BME280;5494;51.796;10.952;2023-05-20T07:14:38;99792.00;;;12.63;100.00
18988;BME280;5494;51.796;10.952;2023-05-20T07:17:06;99772.66;;;12.68;100.00
18988;BME280;5494;51.796;10.952;2023-05-20T07:19:34;99783.09;;;12.68;100.00
18988;BME280;5494;51.796;10.952;2023-05-20T07:22:02;99767.59;;;12.65;100.00
18988;BME280;5494;51.796;10.952;2023-05-20T07:24:35;99778.56;;;12.52;100.00
18988;BME280;5494;51.796;10.952;2023-05-20T07:27:08;99761.81;;;12.58;100.00
18988;BME280;5494;51.796;10.952;2023-05-20T07:29:37;99760.88;;;12.78;100.00
18988;BME280;5494;51.796;10.952;2023-05-20T07:32:07;99754.03;;;12.75;100.00
18988;BME280;5494;51.796;10.952;2023-05-20T07:34:36;99759.09;;;12.97;100.00
18988;BME280;5494;51.796;10.952;2023-05-20T07:37:04;99756.53;;;12.95;100.00
18988;BME280;5494;51.796;10.952;2023-05-20T07:39:33;99758.19;;;12.98;100.00
18988;BME280;5494;51.796;10.952;2023-05-20T07:42:04;99756.53;;;13.14;100.00
18988;BME280;5494;51.796;10.952;2023-05-20T07:44:34;99747.34;;;13.41;100.00
18988;BME280;5494;51.796;10.952;2023-05-20T07:47:04;99750.56;;;13.29;100.00
18988;BME280;5494;51.796;10.952;2023-05-20T07:49:33;99752.19;;;13.32;100.00
18988;BME280;5494;51.796;10.952;2023-05-20T07:52:01;99764.00;;;13.22;100.00
18988;BME280;5494;51.796;10.952;2023-05-20T07:54:29;99754.25;;;13.25;100.00
18988;BME280;5494;51.796;10.952;2023-05-20T07:56:57;99752.28;;;13.12;100.00
18988;BME280;5494;51.796;10.952;2023-05-20T07:59:27;99745.81;;;13.01;100.00
18988;BME280;5494;51.796;10.952;2023-05-20T08:01:58;99754.06;;;13.11;100.00
18988;BME280;5494;51.796;10.952;2023-05-20T08:04:26;99756.06;;;13.06;100.00
18988;BME280;5494;51.796;10.952;2023-05-20T08:06:55;99748.47;;;13.00;100.00
18988;BME280;5494;51.796;10.952;2023-05-20T08:09:34;99756.78;;;12.91;100.00
18988;BME280;5494;51.796;10.952;2023-05-20T08:12:05;99748.03;;;12.92;100.00
18988;BME280;5494;51.796;10.952;2023-05-20T08:14:33;99751.69;;;12.88;100.00
18988;BME280;5494;51.796;10.952;2023-05-20T08:17:03;99746.47;;;12.88;100.00
18988;BME280;5494;51.796;10.952;2023-05-20T08:19:31;99737.59;;;12.92;100.00
18988;BME280;5494;51.796;10.952;2023-05-20T08:21:59;99742.72;;;12.93;100.00
18988;BME280;5494;51.796;10.952;2023-05-20T08:24:28;99745.13;;;12.98;100.00
18988;BME280;5494;51.796;10.952;2023-05-20T08:26:56;99746.59;;;13.03;100.00
18988;BME280;5494;51.796;10.952;2023-05-20T08:29:25;99744.97;;;13.01;100.00
18988;BME280;5494;51.796;10.952;2023-05-20T08:31:53;99738.16;;;12.98;100.00
18988;BME280;5494;51.796;10.952;2023-05-20T08:34:24;99747.28;;;13.07;100.00
18988;BME280;5494;51.796;10.952;2023-05-20T08:36:52;99734.09;;;13.10;100.00
18988;BME280;5494;51.796;10.952;2023-05-20T08:39:21;99735.91;;;13.08;100.00
18988;BME280;5494;51.796;10.952;2023-05-20T08:41:50;99733.78;;;12.99;100.00
18988;BME280;5494;51.796;10.952;2023-05-20T08:44:18;99734.09;;;13.10;100.00
18988;BME280;5494;51.796;10.952;2023-05-20T08:46:49;99728.59;;;13.16;100.00
18988;BME280;5494;51.796;10.952;2023-05-20T08:49:19;99738.91;;;13.19;100.00
18988;BME280;5494;51.796;10.952;2023-05-20T08:51:48;99741.41;;;13.21;100.00
18988;BME280;5494;51.796;10.952;2023-05-20T08:54:18;99734.22;;;13.26;100.00
18988;BME280;5494;51.796;10.952;2023-05-20T08:56:49;99735.69;;;13.31;100.00
18988;BME280;5494;51.796;10.952;2023-05-20T08:59:20;99735.13;;;13.42;100.00
18988;BME280;5494;51.796;10.952;2023-05-20T09:01:49;99743.06;;;13.40;100.00
18988;BME280;5494;51.796;10.952;2023-05-20T09:04:17;99735.84;;;13.46;100.00
18988;BME280;5494;51.796;10.952;2023-05-20T09:06:45;99732.00;;;13.53;100.00
18988;BME280;5494;51.796;10.952;2023-05-20T09:09:15;99744.75;;;13.76;100.00
18988;BME280;5494;51.796;10.952;2023-05-20T09:11:43;99738.22;;;13.67;100.00
18988;BME280;5494;51.796;10.952;2023-05-20T09:14:11;99742.19;;;13.74;100.00
18988;BME280;5494;51.796;10.952;2023-05-20T09:16:39;99741.28;;;13.58;100.00
18988;BME280;5494;51.796;10.952;2023-05-20T09:19:09;99739.38;;;13.62;100.00
18988;BME280;5494;51.796;10.952;2023-05-20T09:21:40;99733.50;;;13.57;100.00
18988;BME280;5494;51.796;10.952;2023-05-20T09:24:08;99735.91;;;13.61;100.00
18988;BME280;5494;51.796;10.952;2023-05-20T09:26:38;99744.06;;;13.55;100.00
18988;BME280;5494;51.796;10.952;2023-05-20T09:29:06;99738.59;;;13.43;100.00
18988;BME280;5494;51.796;10.952;2023-05-20T09:31:36;99727.75;;;13.50;100.00
18988;BME280;5494;51.796;10.952;2023-05-20T09:34:05;99729.06;;;13.59;100.00
18988;BME280;5494;51.796;10.952;2023-05-20T09:36:34;99724.66;;;13.76;100.00
18988;BME280;5494;51.796;10.952;2023-05-20T09:39:03;99720.72;;;13.85;100.00
18988;BME280;5494;51.796;10.952;2023-05-20T09:41:40;99725.63;;;13.91;100.00
18988;BME280;5494;51.796;10.952;2023-05-20T09:44:14;99728.16;;;13.93;100.00
18988;BME280;5494;51.796;10.952;2023-05-20T09:46:43;99729.72;;;13.79;100.00
18988;BME280;5494;51.796;10.952;2023-05-20T09:49:12;99734.81;;;13.65;100.00
18988;BME280;5494;51.796;10.952;2023-05-20T09:51:42;99731.50;;;13.79;100.00
18988;BME280;5494;51.796;10.952;2023-05-20T09:54:12;99727.06;;;13.97;100.00
18988;BME280;5494;51.796;10.952;2023-05-20T09:56:43;99723.38;;;14.01;100.00
18988;BME280;5494;51.796;10.952;2023-05-20T09:59:12;99722.53;;;14.00;100.00
18988;BME280;5494;51.796;10.952;2023-05-20T10:01:41;99724.56;;;13.78;100.00
18988;BME280;5494;51.796;10.952;2023-05-20T10:04:12;99716.41;;;13.84;100.00
18988;BME280;5494;51.796;10.952;2023-05-20T10:07:07;99718.03;;;13.69;100.00
18988;BME280;5494;51.796;10.952;2023-05-20T10:09:53;99707.13;;;13.78;100.00
18988;BME280;5494;51.796;10.952;2023-05-20T10:12:33;99710.75;;;13.76;100.00
18988;BME280;5494;51.796;10.952;2023-05-20T10:15:15;99723.41;;;13.84;100.00
18988;BME280;5494;51.796;10.952;2023-05-20T10:17:55;99718.44;;;13.79;100.00
18988;BME280;5494;51.796;10.952;2023-05-20T10:20:28;99710.00;;;13.74;100.00
18988;BME280;5494;51.796;10.952;2023-05-20T10:22:57;99698.69;;;13.73;100.00
18988;BME280;5494;51.796;10.952;2023-05-20T10:25:27;99712.72;;;13.88;100.00
18988;BME280;5494;51.796;10.952;2023-05-20T10:28:08;99713.81;;;13.84;100.00
18988;BME280;5494;51.796;10.952;2023-05-20T10:30:37;99713.53;;;13.73;100.00
18988;BME280;5494;51.796;10.952;2023-05-20T10:33:17;99708.75;;;13.81;100.00
18988;BME280;5494;51.796;10.952;2023-05-20T10:35:49;99699.69;;;13.71;100.00
18988;BME280;5494;51.796;10.952;2023-05-20T10:38:18;99705.59;;;13.74;100.00
18988;BME280;5494;51.796;10.952;2023-05-20T10:40:46;99695.59;;;13.83;100.00
18988;BME280;5494;51.796;10.952;2023-05-20T10:43:25;99684.25;;;13.99;100.00
18988;BME280;5494;51.796;10.952;2023-05-20T10:45:55;99681.38;;;13.88;100.00
18988;BME280;5494;51.796;10.952;2023-05-20T10:48:26;99681.19;;;13.91;100.00
18988;BME280;5494;51.796;10.952;2023-05-20T10:50:55;99679.09;;;13.98;100.00
18988;BME280;5494;51.796;10.952;2023-05-20T10:53:25;99684.72;;;13.90;100.00
18988;BME280;5494;51.796;10.952;2023-05-20T10:56:00;99678.44;;;13.77;100.00
18988;BME280;5494;51.796;10.952;2023-05-20T10:58:38;99680.59;;;13.86;100.00
18988;BME280;5494;51.796;10.952;2023-05-20T11:01:06;99677.06;;;13.87;100.00
18988;BME280;5494;51.796;10.952;2023-05-20T11:03:35;99670.47;;;13.80;100.00
18988;BME280;5494;51.796;10.952;2023-05-20T11:06:10;99669.53;;;13.81;100.00
18988;BME280;5494;51.796;10.952;2023-05-20T11:08:40;99677.00;;;13.89;100.00
18988;BME280;5494;51.796;10.952;2023-05-20T11:11:10;99671.44;;;13.95;100.00
18988;BME280;5494;51.796;10.952;2023-05-20T11:13:40;99654.94;;;14.10;100.00
18988;BME280;5494;51.796;10.952;2023-05-20T11:16:08;99667.75;;;14.14;100.00
18988;BME280;5494;51.796;10.952;2023-05-20T11:18:37;99658.28;;;14.12;100.00
18988;BME280;5494;51.796;10.952;2023-05-20T11:21:05;99661.31;;;14.20;100.00
18988;BME280;5494;51.796;10.952;2023-05-20T11:23:33;99669.06;;;14.06;100.00
18988;BME280;5494;51.796;10.952;2023-05-20T11:26:03;99657.78;;;14.05;100.00
18988;BME280;5494;51.796;10.952;2023-05-20T11:28:31;99650.94;;;14.18;100.00
18988;BME280;5494;51.796;10.952;2023-05-20T11:31:01;99646.25;;;14.41;100.00
18988;BME280;5494;51.796;10.952;2023-05-20T11:33:29;99644.09;;;14.32;100.00
18988;BME280;5494;51.796;10.952;2023-05-20T11:35:57;99651.03;;;14.33;100.00
18988;BME280;5494;51.796;10.952;2023-05-20T11:38:25;99642.44;;;14.31;100.00
18988;BME280;5494;51.796;10.952;2023-05-20T11:40:54;99637.97;;;14.48;100.00
18988;BME280;5494;51.796;10.952;2023-05-20T11:43:23;99649.38;;;14.63;100.00
18988;BME280;5494;51.796;10.952;2023-05-20T11:45:54;99647.50;;;14.65;100.00
18988;BME280;5494;51.796;10.952;2023-05-20T11:48:26;99643.56;;;14.58;100.00
18988;BME280;5494;51.796;10.952;2023-05-20T11:50:56;99640.53;;;14.80;100.00
18988;BME280;5494;51.796;10.952;2023-05-20T11:53:27;99641.94;;;14.71;100.00
18988;BME280;5494;51.796;10.952;2023-05-20T11:55:58;99640.16;;;14.72;100.00
18988;BME280;5494;51.796;10.952;2023-05-20T11:58:29;99636.00;;;14.83;100.00
18988;BME280;5494;51.796;10.952;2023-05-20T12:00:58;99643.44;;;14.75;100.00
18988;BME280;5494;51.796;10.952;2023-05-20T12:03:48;99632.81;;;14.63;100.00
18988;BME280;5494;51.796;10.952;2023-05-20T12:06:17;99637.44;;;14.73;100.00
18988;BME280;5494;51.796;10.952;2023-05-20T12:08:45;99639.81;;;14.62;100.00
18988;BME280;5494;51.796;10.952;2023-05-20T12:11:13;99632.81;;;14.63;100.00
18988;BME280;5494;51.796;10.952;2023-05-20T12:13:42;99635.28;;;14.50;100.00
18988;BME280;5494;51.796;10.952;2023-05-20T12:16:10;99635.59;;;14.59;100.00
18988;BME280;5494;51.796;10.952;2023-05-20T12:18:38;99629.91;;;14.83;100.00
18988;BME280;5494;51.796;10.952;2023-05-20T12:21:08;99631.13;;;14.62;100.00
18988;BME280;5494;51.796;10.952;2023-05-20T12:23:36;99623.06;;;14.50;100.00
18988;BME280;5494;51.796;10.952;2023-05-20T12:26:04;99620.84;;;14.58;100.00
18988;BME280;5494;51.796;10.952;2023-05-20T12:28:35;99606.78;;;14.75;100.00
18988;BME280;5494;51.796;10.952;2023-05-20T12:31:03;99633.53;;;14.80;100.00
18988;BME280;5494;51.796;10.952;2023-05-20T12:33:31;99611.53;;;14.69;100.00
18988;BME280;5494;51.796;10.952;2023-05-20T12:36:00;99616.19;;;14.64;100.00
18988;BME280;5494;51.796;10.952;2023-05-20T12:38:29;99609.09;;;14.95;100.00
18988;BME280;5494;51.796;10.952;2023-05-20T12:40:57;99602.03;;;15.12;100.00
18988;BME280;5494;51.796;10.952;2023-05-20T12:43:25;99613.19;;;14.85;100.00
18988;BME280;5494;51.796;10.952;2023-05-20T12:45:53;99611.09;;;14.76;100.00
18988;BME280;5494;51.796;10.952;2023-05-20T12:48:21;99602.88;;;14.82;100.00
18988;BME280;5494;51.796;10.952;2023-05-20T12:50:49;99605.00;;;14.76;100.00
18988;BME280;5494;51.796;10.952;2023-05-20T12:53:20;99602.88;;;14.82;100.00
18988;BME280;5494;51.796;10.952;2023-05-20T12:55:50;99608.25;;;14.95;100.00
18988;BME280;5494;51.796;10.952;2023-05-20T12:58:18;99604.06;;;14.92;100.00
18988;BME280;5494;51.796;10.952;2023-05-20T13:00:46;99597.03;;;14.93;100.00
18988;BME280;5494;51.796;10.952;2023-05-20T13:03:14;99595.84;;;14.98;100.00